Time;durP1;ratioP1;P1;durP2;ratioP2;P2;SDS_P1;SDS_P2;PMS_P1;PMS_P2;Temp;Humidity;BMP_temperature;BMP_pressure;BME280_temperature;BME280_humidity;BME280_pressure;Samples;Min_cycle;Max_cycle;Signal;HPM_P1;HPM_P2
2023/07/19 00:00:35;;;;;;;6.38;2.70;;;;;;;21.12;51.17;101333.75;5051830;28;20025;-74
2023/07/19 00:03:01;;;;;;;8.00;2.95;;;;;;;21.02;51.39;101328.31;5066263;28;20052;-74
2023/07/19 00:05:26;;;;;;;9.05;3.38;;;;;;;20.90;51.96;101319.50;5059428;28;20102;-73
2023/07/19 00:07:51;;;;;;;7.63;3.22;;;;;;;20.95;51.84;101316.63;5068918;28;20041;-74
2023/07/19 00:10:17;;;;;;;7.75;3.38;;;;;;;20.90;51.73;101311.06;5062496;28;20025;-74
2023/07/19 00:12:42;;;;;;;6.55;3.20;;;;;;;20.90;51.69;101313.88;5068409;28;20140;-73
2023/07/19 00:15:08;;;;;;;6.47;2.95;;;;;;;20.89;51.81;101315.84;5054798;28;20036;-73
2023/07/19 00:17:33;;;;;;;4.32;3.10;;;;;;;20.89;51.88;101326.31;5058194;28;20024;-73
2023/07/19 00:19:58;;;;;;;5.18;3.17;;;;;;;20.82;51.93;101324.72;5061136;28;20392;-73
2023/07/19 00:22:24;;;;;;;5.30;3.20;;;;;;;20.67;52.44;101307.25;5080127;28;20111;-73
2023/07/19 00:24:49;;;;;;;5.78;3.10;;;;;;;20.70;52.58;101304.66;5094373;28;20028;-74
2023/07/19 00:27:14;;;;;;;4.90;2.92;;;;;;;20.67;52.61;101298.78;5090622;28;20143;-74
2023/07/19 00:29:39;;;;;;;7.13;4.05;;;;;;;20.63;52.70;101298.56;5063240;28;20060;-74
2023/07/19 00:32:05;;;;;;;5.50;3.47;;;;;;;20.59;52.66;101292.75;5063189;28;20036;-73
2023/07/19 00:34:31;;;;;;;5.75;3.38;;;;;;;20.54;52.84;101298.44;5055399;28;20040;-73
2023/07/19 00:36:56;;;;;;;7.97;3.35;;;;;;;20.57;52.80;101291.38;5064899;28;20040;-74
2023/07/19 00:39:22;;;;;;;6.82;3.47;;;;;;;20.58;52.40;101287.38;5059869;28;20027;-73
2023/07/19 00:41:47;;;;;;;4.68;3.25;;;;;;;20.48;53.25;101279.09;5064437;28;20128;-73
2023/07/19 00:44:12;;;;;;;5.32;3.10;;;;;;;20.47;53.21;101275.41;5070335;28;20032;-74
2023/07/19 00:46:38;;;;;;;5.65;3.63;;;;;;;20.46;53.17;101276.56;5072300;28;20029;-73
2023/07/19 00:49:05;;;;;;;8.68;4.10;;;;;;;20.35;53.63;101275.91;5073516;28;20078;-74
2023/07/19 00:51:31;;;;;;;6.88;3.47;;;;;;;20.29;54.01;101277.16;5071008;28;20029;-74
2023/07/19 00:53:56;;;;;;;6.07;3.20;;;;;;;20.30;53.92;101270.38;5054701;28;20024;-73
2023/07/19 00:56:23;;;;;;;8.27;3.20;;;;;;;20.28;53.80;101261.41;5068641;28;20028;-73
2023/07/19 00:58:53;;;;;;;7.25;2.92;;;;;;;20.26;53.79;101265.66;5067368;28;20036;-73
2023/07/19 01:01:20;;;;;;;6.32;2.53;;;;;;;20.30;53.95;101266.72;5054129;28;20047;-73
2023/07/19 01:03:45;;;;;;;4.45;2.58;;;;;;;20.24;53.97;101271.63;5053537;28;20507;-73
2023/07/19 01:06:11;;;;;;;5.50;2.95;;;;;;;20.26;54.07;101272.13;5053713;28;20029;-74
2023/07/19 01:08:36;;;;;;;4.72;2.80;;;;;;;20.23;53.95;101278.38;5058029;28;20063;-74
2023/07/19 01:11:02;;;;;;;3.65;2.70;;;;;;;20.22;54.19;101268.25;5066762;28;20115;-73
2023/07/19 01:13:27;;;;;;;8.93;3.10;;;;;;;20.18;54.21;101260.72;5053652;28;20111;-74
2023/07/19 01:15:53;;;;;;;9.98;2.88;;;;;;;20.14;54.60;101263.31;5052738;28;20103;-73
2023/07/19 01:18:19;;;;;;;5.85;2.80;;;;;;;20.20;54.31;101258.41;5058784;28;20039;-73
2023/07/19 01:20:45;;;;;;;10.05;2.90;;;;;;;20.14;54.65;101263.31;5092017;28;20551;-73
2023/07/19 01:23:11;;;;;;;5.38;2.60;;;;;;;20.17;54.51;101259.91;5080193;28;20074;-73
2023/07/19 01:25:37;;;;;;;5.95;2.65;;;;;;;20.16;54.57;101255.41;5073194;28;20024;-73
2023/07/19 01:28:02;;;;;;;5.75;2.85;;;;;;;20.15;54.33;101265.00;5072233;28;20028;-73
2023/07/19 01:30:28;;;;;;;6.22;2.70;;;;;;;20.07;54.97;101251.59;5062686;28;20052;-74
2023/07/19 01:32:54;;;;;;;5.18;2.92;;;;;;;20.14;54.82;101240.78;5053482;28;20104;-73
2023/07/19 01:35:19;;;;;;;5.82;3.05;;;;;;;20.14;54.90;101237.97;5053058;28;20044;-73
2023/07/19 01:37:45;;;;;;;4.90;2.70;;;;;;;20.18;54.63;101243.81;5072483;28;20035;-74
2023/07/19 01:40:11;;;;;;;4.85;2.60;;;;;;;20.16;54.58;101234.81;5076332;28;20043;-74
2023/07/19 01:42:37;;;;;;;4.15;2.75;;;;;;;20.13;54.93;101239.13;5067489;28;20050;-73
2023/07/19 01:45:03;;;;;;;4.97;2.58;;;;;;;20.09;55.04;101238.88;5065362;28;20793;-73
2023/07/19 01:47:28;;;;;;;5.07;2.42;;;;;;;20.14;54.79;101235.13;5067821;28;20055;-73
2023/07/19 01:49:54;;;;;;;3.40;2.28;;;;;;;20.13;54.92;101244.75;5068087;28;20048;-73
2023/07/19 01:52:19;;;;;;;4.72;2.55;;;;;;;20.15;54.70;101247.25;5060627;28;20071;-73
2023/07/19 01:54:44;;;;;;;5.43;2.70;;;;;;;20.18;54.54;101235.38;5071544;28;20088;-74
2023/07/19 01:57:10;;;;;;;4.85;2.80;;;;;;;20.16;54.72;101241.31;5075883;28;20036;-73
2023/07/19 01:59:36;;;;;;;6.43;2.65;;;;;;;20.22;54.31;101242.88;5093021;28;20024;-73
2023/07/19 02:02:01;;;;;;;4.75;2.25;;;;;;;20.24;54.38;101243.44;5070361;28;20499;-73
2023/07/19 02:04:27;;;;;;;4.07;2.22;;;;;;;20.28;54.20;101240.84;5052754;28;20772;-73
2023/07/19 02:06:53;;;;;;;5.85;2.80;;;;;;;20.11;54.64;101235.75;5054678;28;20033;-73
2023/07/19 02:09:18;;;;;;;3.63;2.38;;;;;;;20.18;54.90;101241.00;5052177;28;20419;-73
2023/07/19 02:11:44;;;;;;;4.72;2.50;;;;;;;20.10;55.06;101234.91;5058214;28;20115;-73
2023/07/19 02:14:09;;;;;;;4.53;2.58;;;;;;;20.04;55.01;101235.31;5084922;28;20107;-73
2023/07/19 02:16:35;;;;;;;4.43;2.40;;;;;;;20.09;55.03;101233.25;5066796;28;20833;-72
2023/07/19 02:19:03;;;;;;;5.50;2.88;;;;;;;20.09;54.88;101229.59;5059093;28;20033;-73
2023/07/19 02:21:28;;;;;;;7.50;2.88;;;;;;;20.06;54.78;101227.38;5069368;28;20052;-73
2023/07/19 02:23:54;;;;;;;5.53;2.75;;;;;;;20.09;55.03;101219.16;5070452;28;20024;-74
2023/07/19 02:26:20;;;;;;;5.30;2.80;;;;;;;20.11;54.83;101219.66;5070267;28;20033;-73
2023/07/19 02:28:45;;;;;;;6.72;2.72;;;;;;;20.14;54.59;101225.84;5056252;28;20131;-72
2023/07/19 02:31:10;;;;;;;4.43;2.08;;;;;;;20.19;54.87;101231.38;5056337;28;20420;-75
2023/07/19 02:33:36;;;;;;;3.50;2.45;;;;;;;20.20;54.34;101233.06;5058452;28;20020;-73
2023/07/19 02:36:02;;;;;;;4.07;2.70;;;;;;;20.23;54.69;101218.34;5066607;28;20542;-73
2023/07/19 02:38:27;;;;;;;9.85;3.00;;;;;;;20.16;54.41;101215.09;5059184;28;20032;-72
2023/07/19 02:41:00;;;;;;;6.43;3.20;;;;;;;20.14;54.24;101218.22;5067201;28;20082;-72
2023/07/19 02:43:26;;;;;;;3.80;2.33;;;;;;;20.17;54.68;101217.63;5071812;28;20414;-74
2023/07/19 02:45:55;;;;;;;4.05;2.92;;;;;;;20.06;54.48;101225.41;5068541;28;20028;-72
2023/07/19 02:48:21;;;;;;;4.45;3.50;;;;;;;20.09;54.22;101230.44;5058595;28;20056;-73
2023/07/19 02:50:48;;;;;;;3.58;2.72;;;;;;;20.10;54.42;101231.25;5064150;28;20104;-72
2023/07/19 02:53:14;;;;;;;6.60;3.20;;;;;;;20.15;54.32;101222.72;5052584;28;20077;-72
2023/07/19 02:55:39;;;;;;;5.20;3.67;;;;;;;20.17;54.47;101225.25;5054160;28;20046;-74
2023/07/19 02:58:05;;;;;;;7.70;3.30;;;;;;;20.14;54.48;101218.22;5051594;28;20029;-76
2023/07/19 03:00:30;;;;;;;5.90;3.22;;;;;;;20.16;54.24;101232.00;5056571;28;20030;-75
2023/07/19 03:02:56;;;;;;;6.93;2.80;;;;;;;20.23;54.34;101233.28;5070880;28;20072;-74
2023/07/19 03:05:25;;;;;;;4.38;2.83;;;;;;;20.20;54.36;101216.16;5064601;28;20046;-74
2023/07/19 03:07:50;;;;;;;4.90;2.90;;;;;;;20.18;54.28;101224.09;5070111;28;20032;-73
2023/07/19 03:10:16;;;;;;;5.57;3.90;;;;;;;20.10;54.26;101220.81;5064116;28;20108;-71
2023/07/19 03:12:42;;;;;;;7.65;2.97;;;;;;;20.14;54.30;101225.84;5051492;28;20028;-72
2023/07/19 03:15:09;;;;;;;4.38;2.55;;;;;;;20.12;54.46;101237.41;5056533;28;20127;-72
2023/07/19 03:17:34;;;;;;;5.10;2.55;;;;;;;20.16;54.34;101241.31;5055180;28;20079;-72
2023/07/19 03:19:59;;;;;;;4.53;2.95;;;;;;;20.14;54.44;101228.66;5063658;28;20487;-72
2023/07/19 03:22:25;;;;;;;5.18;2.95;;;;;;;20.10;54.34;101228.44;5087315;28;20032;-73
2023/07/19 03:24:50;;;;;;;7.60;3.40;;;;;;;20.08;54.55;101233.53;5091363;28;20056;-73
2023/07/19 03:27:15;;;;;;;6.25;2.55;;;;;;;20.13;54.10;101239.13;5072093;28;20036;-75
2023/07/19 03:29:41;;;;;;;3.00;2.60;;;;;;;20.13;54.32;101239.13;5050669;28;20036;-74
2023/07/19 03:32:07;;;;;;;3.25;2.45;;;;;;;20.14;54.19;101245.59;5070657;28;20029;-74
2023/07/19 03:34:32;;;;;;;5.85;2.33;;;;;;;20.15;54.03;101252.88;5070664;28;20032;-74
2023/07/19 03:36:58;;;;;;;7.90;3.70;;;;;;;20.05;54.73;101251.09;5069221;28;20025;-74
2023/07/19 03:39:24;;;;;;;5.22;2.47;;;;;;;20.07;54.84;101246.81;5071252;28;20032;-74
2023/07/19 03:41:49;;;;;;;7.47;3.70;;;;;;;19.94;55.41;101241.13;5078544;28;20463;-74
2023/07/19 03:44:14;;;;;;;6.95;3.45;;;;;;;19.99;55.03;101243.84;5082302;28;20056;-74
2023/07/19 03:46:39;;;;;;;6.82;2.80;;;;;;;20.06;54.87;101239.50;5068645;28;20472;-74
2023/07/19 03:49:05;;;;;;;4.53;3.00;;;;;;;20.05;55.10;101237.00;5066671;28;20099;-74
2023/07/19 03:51:30;;;;;;;6.20;3.10;;;;;;;20.05;55.24;101239.81;5068203;28;20453;-74
2023/07/19 03:53:55;;;;;;;6.25;3.90;;;;;;;19.97;55.86;101243.34;5071293;28;20447;-74
2023/07/19 03:56:21;;;;;;;6.13;3.80;;;;;;;19.83;56.28;101240.44;5068828;28;20043;-75
2023/07/19 03:58:49;;;;;;;4.28;3.05;;;;;;;19.94;55.74;101246.75;5059255;28;20090;-74
2023/07/19 04:01:15;;;;;;;5.72;2.92;;;;;;;19.96;56.07;101253.75;5052268;28;20484;-74
2023/07/19 04:03:41;;;;;;;5.90;2.85;;;;;;;19.97;55.96;101249.81;5054898;28;20036;-75
2023/07/19 04:06:07;;;;;;;7.43;3.28;;;;;;;19.95;56.11;101245.59;5067983;28;20029;-74
2023/07/19 04:08:33;;;;;;;6.82;3.47;;;;;;;19.97;56.21;101251.78;5062850;28;20533;-74
2023/07/19 04:10:59;;;;;;;9.25;4.20;;;;;;;19.88;57.19;101236.69;5069795;28;20415;-74
2023/07/19 04:13:26;;;;;;;7.07;3.05;;;;;;;19.94;56.42;101236.31;5070189;28;20025;-74
2023/07/19 04:15:51;;;;;;;5.28;3.33;;;;;;;19.96;56.78;101244.47;5050693;28;20064;-74
2023/07/19 04:18:17;;;;;;;7.25;3.45;;;;;;;19.89;57.56;101233.59;5065550;28;20033;-74
2023/07/19 04:20:42;;;;;;;10.27;3.42;;;;;;;19.94;56.85;101238.31;5070550;28;20460;-74
2023/07/19 04:23:07;;;;;;;6.40;3.60;;;;;;;19.96;56.77;101233.19;5070703;28;20456;-74
2023/07/19 04:25:33;;;;;;;9.07;3.30;;;;;;;19.96;57.10;101238.81;5069941;28;20032;-75
2023/07/19 04:27:58;;;;;;;4.93;4.20;;;;;;;19.95;57.30;101243.63;5069636;28;20024;-74
2023/07/19 04:30:23;;;;;;;7.90;4.45;;;;;;;19.93;57.30;101240.28;5069100;28;20086;-74
2023/07/19 04:32:51;;;;;;;5.88;4.75;;;;;;;19.91;57.43;101242.56;5059167;28;20067;-74
2023/07/19 04:35:17;;;;;;;9.13;5.00;;;;;;;19.91;57.95;101241.72;5061677;28;20044;-74
2023/07/19 04:37:42;;;;;;;6.63;4.25;;;;;;;19.92;57.36;101246.22;5050309;28;20028;-74
2023/07/19 04:40:10;;;;;;;5.10;3.38;;;;;;;19.97;57.18;101246.16;5059784;28;20017;-74
2023/07/19 04:42:35;;;;;;;5.05;3.60;;;;;;;19.98;57.16;101248.66;5065967;28;20021;-74
2023/07/19 04:45:01;;;;;;;8.48;4.63;;;;;;;19.96;57.32;101250.09;5069251;28;20028;-74
2023/07/19 04:47:26;;;;;;;5.47;3.22;;;;;;;20.00;57.16;101253.97;5070766;28;20476;-74
2023/07/19 04:49:52;;;;;;;6.28;5.00;;;;;;;19.85;57.87;101255.06;5066803;28;20519;-74
2023/07/19 04:52:17;;;;;;;10.15;4.95;;;;;;;19.79;58.48;101251.47;5070321;28;20027;-74
2023/07/19 04:54:42;;;;;;;8.32;5.03;;;;;;;19.82;58.26;101255.69;5075878;28;20021;-74
2023/07/19 04:57:07;;;;;;;8.35;5.15;;;;;;;19.73;58.28;101255.53;5067751;28;20161;-74
2023/07/19 04:59:33;;;;;;;7.90;4.80;;;;;;;19.78;58.34;101260.25;5073274;28;20028;-74
2023/07/19 05:01:58;;;;;;;7.22;4.95;;;;;;;19.64;58.44;101260.16;5070274;28;20118;-74
2023/07/19 05:04:24;;;;;;;6.15;4.10;;;;;;;19.74;58.33;101262.84;5073850;28;20039;-75
2023/07/19 05:06:49;;;;;;;10.85;4.32;;;;;;;19.76;58.18;101254.91;5072419;28;20380;-74
2023/07/19 05:09:15;;;;;;;10.68;5.65;;;;;;;19.66;58.62;101257.06;5070774;28;20532;-74
2023/07/19 05:11:41;;;;;;;9.90;4.70;;;;;;;19.72;58.05;101261.47;5070698;28;20027;-74
2023/07/19 05:14:06;;;;;;;5.40;3.80;;;;;;;19.78;57.87;101258.28;5069548;28;20560;-74
2023/07/19 05:16:35;;;;;;;4.57;3.80;;;;;;;19.80;57.87;101260.78;5072310;28;20426;-74
2023/07/19 05:19:00;;;;;;;5.72;4.18;;;;;;;19.78;57.64;101248.97;5070988;28;20481;-74
2023/07/19 05:21:27;;;;;;;8.90;5.20;;;;;;;19.74;57.69;101260.03;5063943;28;20111;-75
2023/07/19 05:23:52;;;;;;;9.15;5.03;;;;;;;19.74;57.76;101254.38;5054190;28;20163;-75
2023/07/19 05:26:18;;;;;;;5.97;4.00;;;;;;;19.82;57.63;101264.13;5063841;28;20123;-75
2023/07/19 05:28:43;;;;;;;6.50;3.22;;;;;;;19.87;57.70;101264.03;5069194;28;20043;-76
2023/07/19 05:31:08;;;;;;;9.55;5.57;;;;;;;19.74;57.84;101254.38;5071199;28;20036;-75
2023/07/19 05:33:34;;;;;;;9.68;5.15;;;;;;;19.79;57.97;101259.94;5069841;28;20024;-74
2023/07/19 05:36:00;;;;;;;8.68;4.90;;;;;;;19.76;57.72;101254.91;5068925;28;20464;-74
2023/07/19 05:38:27;;;;;;;7.88;4.93;;;;;;;19.77;57.95;101252.94;5060523;28;20069;-67
2023/07/19 05:40:59;;;;;;;9.57;5.75;;;;;;;19.78;58.11;101252.63;5060986;28;20040;-69
2023/07/19 05:43:24;;;;;;;8.98;5.85;;;;;;;19.75;58.28;101250.41;5074141;28;20020;-75
2023/07/19 05:45:50;;;;;;;6.53;3.40;;;;;;;19.91;57.63;101245.38;5073409;28;20154;-75
2023/07/19 05:48:15;;;;;;;8.02;5.47;;;;;;;19.89;57.54;101244.03;5080419;28;20153;-75
2023/07/19 05:50:41;;;;;;;5.35;4.38;;;;;;;19.94;57.54;101246.75;5093445;28;20059;-74
2023/07/19 05:53:06;;;;;;;10.35;5.70;;;;;;;19.90;57.18;101252.16;5093479;28;20380;-74
2023/07/19 05:55:32;;;;;;;10.10;5.05;;;;;;;19.92;57.21;101249.88;5082060;28;20030;-74
2023/07/19 05:57:57;;;;;;;9.02;5.72;;;;;;;19.96;56.89;101250.09;5068997;28;20622;-75
2023/07/19 06:00:24;;;;;;;10.88;5.60;;;;;;;19.97;57.03;101258.25;5093652;28;20035;-75
2023/07/19 06:02:52;;;;;;;8.95;4.00;;;;;;;20.06;56.93;101255.56;5092478;28;20410;-75
2023/07/19 06:05:18;;;;;;;7.32;3.17;;;;;;;20.13;56.67;101250.38;5093607;28;20020;-75
2023/07/19 06:07:45;;;;;;;9.75;5.30;;;;;;;20.14;56.64;101257.69;5089952;28;20082;-75
2023/07/19 06:10:10;;;;;;;10.27;4.10;;;;;;;20.23;56.37;101255.00;5071371;28;20032;-75
2023/07/19 06:12:36;;;;;;;8.15;5.18;;;;;;;20.20;55.95;101253.66;5069396;28;20029;-75
2023/07/19 06:15:01;;;;;;;8.32;4.57;;;;;;;20.19;56.02;101251.94;5071623;28;20044;-74
2023/07/19 06:17:26;;;;;;;9.07;5.22;;;;;;;20.22;55.85;101253.34;5071832;28;20055;-75
2023/07/19 06:19:52;;;;;;;5.28;4.20;;;;;;;20.32;55.61;101255.97;5086032;28;20058;-75
2023/07/19 06:22:18;;;;;;;9.85;5.40;;;;;;;20.33;55.47;101254.81;5092330;28;20024;-74
2023/07/19 06:24:43;;;;;;;11.38;5.30;;;;;;;20.38;55.10;101240.63;5091875;28;20072;-74
2023/07/19 06:27:09;;;;;;;7.00;4.28;;;;;;;20.47;55.09;101249.22;5092970;28;20066;-75
2023/07/19 06:29:34;;;;;;;9.00;5.00;;;;;;;20.47;55.20;101255.69;5081149;28;20032;-74
2023/07/19 06:31:59;;;;;;;9.48;4.57;;;;;;;20.49;55.04;101244.97;5058657;28;20392;-75
2023/07/19 06:34:24;;;;;;;5.95;3.90;;;;;;;20.55;55.08;101242.88;5072075;28;20041;-75
2023/07/19 06:36:50;;;;;;;8.45;4.00;;;;;;;20.53;54.92;101245.19;5071670;28;20086;-75
2023/07/19 06:39:15;;;;;;;9.10;4.07;;;;;;;20.52;54.54;101238.72;5070462;28;20403;-75
2023/07/19 06:41:40;;;;;;;10.23;4.28;;;;;;;20.55;54.47;101240.06;5072009;28;20075;-75
2023/07/19 06:44:06;;;;;;;8.32;5.03;;;;;;;20.54;54.56;101255.31;5071775;28;20055;-75
2023/07/19 06:46:31;;;;;;;7.10;4.38;;;;;;;20.57;54.80;101257.53;5071807;28;20112;-75
2023/07/19 06:48:56;;;;;;;11.43;6.22;;;;;;;20.54;55.25;101247.69;5076594;28;20364;-75
2023/07/19 06:51:22;;;;;;;6.20;3.65;;;;;;;20.73;55.14;101250.44;5070198;28;20029;-75
2023/07/19 06:53:47;;;;;;;7.20;4.07;;;;;;;20.84;54.64;101249.09;5052053;28;20484;-75
2023/07/19 06:56:12;;;;;;;10.07;3.78;;;;;;;20.99;54.58;101249.94;5051556;28;20036;-75
2023/07/19 06:58:38;;;;;;;7.90;4.55;;;;;;;21.06;54.13;101251.19;5051487;28;20028;-75
2023/07/19 07:01:03;;;;;;;5.25;3.35;;;;;;;21.14;53.95;101252.41;5060714;28;20025;-75
2023/07/19 07:03:29;;;;;;;9.20;5.55;;;;;;;21.10;54.43;101245.72;5072090;28;20028;-75
2023/07/19 07:05:54;;;;;;;8.80;4.53;;;;;;;21.21;54.09;101257.63;5070665;28;20039;-75
2023/07/19 07:08:20;;;;;;;6.10;3.53;;;;;;;21.28;54.06;101253.25;5067639;28;20113;-75
2023/07/19 07:10:45;;;;;;;7.28;4.43;;;;;;;21.36;53.94;101248.03;5076798;28;20024;-74
2023/07/19 07:13:11;;;;;;;7.28;4.22;;;;;;;21.43;54.22;101260.56;5091584;28;20364;-75
2023/07/19 07:15:36;;;;;;;9.60;4.78;;;;;;;21.38;53.89;101260.69;5091690;28;20079;-75
2023/07/19 07:18:02;;;;;;;5.68;3.38;;;;;;;21.41;53.71;101262.03;5091401;28;20031;-76
2023/07/19 07:20:27;;;;;;;7.93;3.20;;;;;;;21.41;53.44;101257.22;5088474;28;20016;-76
2023/07/19 07:22:53;;;;;;;5.43;2.92;;;;;;;21.40;53.71;101257.56;5091740;28;20038;-75
2023/07/19 07:25:19;;;;;;;8.68;4.68;;;;;;;21.34;54.37;101262.50;5065361;28;20032;-76
2023/07/19 07:27:44;;;;;;;7.40;4.03;;;;;;;21.32;54.03;101259.09;5050647;28;20067;-75
2023/07/19 07:30:10;;;;;;;6.82;4.20;;;;;;;21.29;54.17;101254.91;5052483;28;20029;-75
2023/07/19 07:32:35;;;;;;;7.43;3.80;;;;;;;21.28;54.18;101256.06;5091697;28;20024;-75
2023/07/19 07:35:02;;;;;;;8.68;4.30;;;;;;;21.22;54.37;101248.88;5087164;28;20383;-75
2023/07/19 07:37:27;;;;;;;7.63;4.10;;;;;;;21.25;54.33;101248.22;5091420;28;20468;-76
2023/07/19 07:39:53;;;;;;;8.52;3.42;;;;;;;21.25;54.36;101242.56;5087384;28;20046;-75
2023/07/19 07:42:20;;;;;;;6.13;3.40;;;;;;;21.24;54.75;101252.19;5077036;28;20115;-75
2023/07/19 07:44:45;;;;;;;7.03;4.10;;;;;;;21.26;54.52;101249.06;5071503;28;20028;-75
2023/07/19 07:47:10;;;;;;;7.50;3.63;;;;;;;21.25;54.48;101248.22;5070837;28;20028;-75
2023/07/19 07:49:36;;;;;;;6.32;3.75;;;;;;;21.22;54.41;101245.19;5069903;28;20035;-75
2023/07/19 07:52:01;;;;;;;5.13;3.13;;;;;;;21.26;54.31;101247.09;5087594;28;20028;-75
2023/07/19 07:54:27;;;;;;;8.45;3.58;;;;;;;21.25;54.32;101250.22;5090911;28;20043;-75
2023/07/19 07:56:52;;;;;;;5.97;3.30;;;;;;;21.24;54.15;101248.56;5082717;28;20361;-75
2023/07/19 07:59:17;;;;;;;8.18;3.42;;;;;;;21.23;54.28;101249.72;5070229;28;20038;-75
2023/07/19 08:01:43;;;;;;;7.05;2.97;;;;;;;21.20;53.85;101245.50;5070524;28;20055;-74
2023/07/19 08:04:10;;;;;;;7.90;3.50;;;;;;;21.28;54.67;101246.75;5074624;28;20028;-75
2023/07/19 08:06:36;;;;;;;8.40;2.63;;;;;;;21.35;54.62;101249.19;5071368;28;20448;-75
2023/07/19 08:09:02;;;;;;;6.15;3.17;;;;;;;21.36;54.50;101248.03;5070383;28;20103;-75
2023/07/19 08:11:27;;;;;;;10.55;3.08;;;;;;;21.39;53.81;101241.78;5070534;28;20116;-76
2023/07/19 08:13:53;;;;;;;6.18;2.20;;;;;;;21.52;53.63;101240.88;5066006;28;20032;-64
2023/07/19 08:16:20;;;;;;;6.63;2.90;;;;;;;21.62;52.94;101228.53;5065687;28;20484;-65
2023/07/19 08:18:45;;;;;;;6.07;3.00;;;;;;;21.70;53.20;101231.44;5069802;28;20033;-65
2023/07/19 08:21:10;;;;;;;6.78;2.53;;;;;;;21.85;52.91;101221.75;5063478;28;20469;-74
2023/07/19 08:23:36;;;;;;;5.05;2.72;;;;;;;21.93;52.22;101222.94;5050032;28;20025;-75
2023/07/19 08:26:01;;;;;;;5.13;2.15;;;;;;;21.99;52.29;101216.03;5050691;28;20052;-74
2023/07/19 08:28:26;;;;;;;8.68;2.75;;;;;;;21.99;50.77;101221.69;5085564;28;20379;-75
2023/07/19 08:30:52;;;;;;;6.78;2.70;;;;;;;22.00;50.77;101218.50;5090044;28;20513;-74
2023/07/19 08:33:24;;;;;;;8.25;2.90;;;;;;;21.97;51.44;101226.84;5083684;28;20057;-75
2023/07/19 08:35:50;;;;;;;6.07;2.10;;;;;;;21.95;50.82;101218.66;5055579;28;20059;-75
2023/07/19 08:38:16;;;;;;;4.97;2.40;;;;;;;21.92;51.09;101227.75;5057904;28;20035;-74
2023/07/19 08:40:54;;;;;;;5.25;2.70;;;;;;;21.89;51.35;101225.59;5054754;28;20029;-74
2023/07/19 08:43:19;;;;;;;5.95;2.40;;;;;;;21.92;51.81;101232.59;5053719;28;20438;-74
2023/07/19 08:45:45;;;;;;;6.10;2.63;;;;;;;21.87;51.71;101230.72;5054021;28;20025;-74
2023/07/19 08:48:10;;;;;;;11.07;2.80;;;;;;;21.89;52.00;101231.25;5081749;28;20111;-74
2023/07/19 08:50:36;;;;;;;5.95;2.50;;;;;;;21.97;51.52;101229.66;5079112;28;20380;-74
2023/07/19 08:53:02;;;;;;;8.52;2.85;;;;;;;22.10;51.04;101236.41;5071407;28;20028;-74
2023/07/19 08:55:31;;;;;;;5.63;2.33;;;;;;;22.09;50.68;101231.91;5053800;28;20429;-74
2023/07/19 08:57:56;;;;;;;10.40;3.00;;;;;;;22.05;50.63;101232.53;5053663;28;20021;-74
2023/07/19 09:00:22;;;;;;;6.15;3.13;;;;;;;22.06;50.23;101233.38;5059500;28;20352;-74
2023/07/19 09:02:49;;;;;;;7.13;2.83;;;;;;;22.14;50.57;101235.44;5073454;28;20538;-74
2023/07/19 09:05:14;;;;;;;6.55;2.65;;;;;;;22.20;50.54;101231.31;5073348;28;20028;-74
2023/07/19 09:07:40;;;;;;;8.73;2.65;;;;;;;22.25;51.23;101236.88;5073591;28;20033;-74
2023/07/19 09:10:08;;;;;;;9.27;4.00;;;;;;;22.33;51.09;101243.72;5085183;28;20032;-74
2023/07/19 09:12:44;;;;;;;7.80;2.85;;;;;;;22.49;50.57;101241.34;5060751;28;20464;-74
2023/07/19 09:15:12;;;;;;;7.53;2.90;;;;;;;22.55;50.49;101242.84;5068332;28;20091;-74
2023/07/19 09:17:42;;;;;;;6.13;2.70;;;;;;;22.54;50.84;101232.69;5073798;28;20381;-74
2023/07/19 09:20:08;;;;;;;6.65;2.80;;;;;;;22.53;50.83;101239.53;5073006;28;20060;-75
2023/07/19 09:22:35;;;;;;;8.02;3.35;;;;;;;22.46;50.90;101236.31;5073561;28;20025;-74
2023/07/19 09:25:04;;;;;;;7.40;3.10;;;;;;;22.47;51.48;101232.31;5084041;28;20123;-74
2023/07/19 09:27:30;;;;;;;5.72;3.47;;;;;;;22.43;51.94;101234.13;5077496;28;20025;-75
2023/07/19 09:29:55;;;;;;;8.40;3.35;;;;;;;22.46;51.61;101223.00;5073607;28;20123;-74
2023/07/19 09:32:22;;;;;;;7.25;2.42;;;;;;;22.55;51.63;101220.22;5079918;28;20483;-74
2023/07/19 09:34:51;;;;;;;7.80;2.90;;;;;;;22.59;51.47;101231.72;5081213;28;20043;-74
2023/07/19 09:37:20;;;;;;;7.35;2.83;;;;;;;22.60;50.98;101230.53;5072732;28;20082;-75
2023/07/19 09:39:46;;;;;;;5.90;2.45;;;;;;;22.63;51.10;101227.91;5072949;28;20036;-74
2023/07/19 09:42:13;;;;;;;6.85;2.40;;;;;;;22.56;50.56;101233.22;5072500;28;20032;-74
2023/07/19 09:44:39;;;;;;;4.22;2.17;;;;;;;22.61;51.29;101233.06;5066006;28;20480;-74
2023/07/19 09:47:09;;;;;;;7.88;2.88;;;;;;;22.58;51.19;101245.03;5070981;28;20029;-74
2023/07/19 09:49:38;;;;;;;5.43;2.67;;;;;;;22.57;51.10;101236.88;5072832;28;20538;-74
2023/07/19 09:52:04;;;;;;;5.60;2.45;;;;;;;22.61;51.12;101226.59;5067517;28;20020;-75
2023/07/19 09:54:33;;;;;;;6.35;2.28;;;;;;;22.63;51.42;101227.06;5071869;28;20571;-74
2023/07/19 09:56:59;;;;;;;7.97;2.60;;;;;;;22.66;51.27;101229.25;5073056;28;20157;-74
2023/07/19 09:59:29;;;;;;;5.57;2.33;;;;;;;22.65;50.85;101228.44;5073114;28;20066;-74
2023/07/19 10:01:55;;;;;;;5.88;2.20;;;;;;;22.63;50.94;101232.72;5076053;28;20020;-74
2023/07/19 10:04:24;;;;;;;7.38;2.45;;;;;;;22.62;51.18;101228.25;5093609;28;20024;-74
2023/07/19 10:07:12;;;;;;;6.68;2.50;;;;;;;22.70;51.43;101225.44;5092683;28;20059;-74
2023/07/19 10:09:43;;;;;;;7.20;2.13;;;;;;;22.82;52.00;101226.84;5078119;28;20039;-75
2023/07/19 10:12:23;;;;;;;7.55;2.58;;;;;;;22.85;51.81;101226.19;5093010;28;20108;-75
2023/07/19 10:15:02;;;;;;;7.75;2.78;;;;;;;22.94;51.55;101227.06;5092278;28;20036;-75
2023/07/19 10:17:32;;;;;;;7.45;2.50;;;;;;;22.93;50.68;101231.06;5092624;28;20048;-74
2023/07/19 10:20:14;;;;;;;9.80;2.22;;;;;;;22.89;50.50;101228.03;5090681;28;20024;-74
2023/07/19 10:22:51;;;;;;;7.95;2.17;;;;;;;22.90;50.18;101240.19;5091665;28;20028;-74
2023/07/19 10:25:32;;;;;;;5.45;2.03;;;;;;;22.88;50.45;101231.19;5066847;28;20052;-74
2023/07/19 10:28:10;;;;;;;5.28;1.80;;;;;;;22.89;49.81;101232.84;5080323;28;20032;-75
2023/07/19 10:30:49;;;;;;;4.22;1.65;;;;;;;22.87;49.40;101235.16;5067437;28;20367;-74
2023/07/19 10:33:28;;;;;;;6.32;1.83;;;;;;;22.83;49.43;101234.97;5071512;28;20511;-74
2023/07/19 10:35:55;;;;;;;6.18;2.08;;;;;;;22.80;48.89;101230.00;5068112;28;20039;-74
2023/07/19 10:38:22;;;;;;;3.50;1.67;;;;;;;22.86;48.52;101230.66;5055157;28;20117;-74
2023/07/19 10:41:03;;;;;;;4.63;1.70;;;;;;;22.91;48.93;101230.53;5079438;28;20039;-74
2023/07/19 10:43:33;;;;;;;5.70;2.10;;;;;;;22.92;48.70;101226.59;5091510;28;20027;-74
2023/07/19 10:45:59;;;;;;;3.45;1.65;;;;;;;22.92;48.60;101233.06;5092405;28;20032;-74
2023/07/19 10:48:27;;;;;;;5.72;1.67;;;;;;;22.89;48.79;101233.69;5091676;28;20051;-74
2023/07/19 10:50:59;;;;;;;3.55;1.58;;;;;;;22.91;48.52;101227.72;5076298;28;20032;-75
2023/07/19 10:53:25;;;;;;;5.07;1.98;;;;;;;22.94;48.79;101218.56;5053871;28;20048;-75
2023/07/19 10:55:54;;;;;;;4.78;1.77;;;;;;;23.04;48.43;101206.97;5051759;28;20029;-74
2023/07/19 10:58:21;;;;;;;3.58;1.70;;;;;;;23.21;48.58;101214.66;5063755;28;20035;-74
2023/07/19 11:00:47;;;;;;;5.50;1.80;;;;;;;23.24;48.48;101214.84;5090943;28;20043;-74
2023/07/19 11:03:16;;;;;;;4.47;1.67;;;;;;;23.20;48.47;101225.16;5091560;28;20398;-74
2023/07/19 11:05:48;;;;;;;6.72;1.92;;;;;;;23.15;48.59;101225.31;5091199;28;20020;-75
2023/07/19 11:08:22;;;;;;;6.47;1.75;;;;;;;23.03;49.40;101237.28;5089800;28;20546;-74
2023/07/19 11:10:49;;;;;;;5.40;2.30;;;;;;;22.86;55.23;101228.66;5091843;28;20476;-74
2023/07/19 11:13:16;;;;;;;3.63;1.70;;;;;;;22.79;58.17;101234.81;5090136;28;20031;-75
2023/07/19 11:15:53;;;;;;;5.15;1.70;;;;;;;22.82;57.93;101224.84;5068781;28;20078;-74
2023/07/19 11:18:38;;;;;;;4.90;1.88;;;;;;;22.90;57.92;101226.84;5079959;28;20032;-74
2023/07/19 11:21:05;;;;;;;5.25;1.95;;;;;;;22.99;58.14;101224.94;5091197;28;20069;-74